Fort Stockton, TX

1:39 PM CDT on July 29, 2016 (GMT -0500)
Fort Stockton RV Park | | Change Station

Elev 2910 ft 30.89 °N, 102.80 °W | Updated 0 second ago

Partly Cloudy
Partly Cloudy
87.4 °F
Feels Like 88 °F
N
5.6
Wind Variable Wind from ENE
Gusts 15.0 mph

Today
High -- | Low -- °F
--% Chance of Precip.
Yesterday
High -- | Low -- °F
Precip. -- in
Pressure 29.94 in
Visibility 10.0 miles
Clouds Few 5000 ft
Heat Index 88 °F
Dew Point 63 °F
Humidity 44%
Rainfall 0.00 in
Snow Depth Not available.
7:07 AM 8:48 PM
Waning Crescent, 20% visible
METAR KFST 291753Z AUTO 15007KT 10SM FEW050 31/17 A3009 RMK AO2 SLP136 T03110172 10317 20206 58001 $
Pressure 29.94 in
Visibility 10.0 miles
Clouds Few 5000 ft
Heat Index 88 °F
Dew Point 63 °F
Humidity 44%
Rainfall 0.00 in
Snow Depth Not available.
7:07 AM 8:48 PM
Waning Crescent, 20% visible
METAR KFST 291753Z AUTO 15007KT 10SM FEW050 31/17 A3009 RMK AO2 SLP136 T03110172 10317 20206 58001 $

10-Day Weather Forecast

Almanac

Astronomy

Jul. 29, 2016 Rise Set
Actual Time
Civil Twilight
Nautical Twilight
Astronomical Twilight
Moon
Length of Visible Light
Length of Day
Tomorrow will be .
, % of the Moon is Illuminated

Today's Extremes

State Highs State Lows

Community

WunderPhotos

Upload Photos

1,928,393 photos uploaded!

WunderBlog® & News

Nearby

Air Quality

  Air Quality AQ Index Pollutant
Not available.

Snow Depth

Station Depth Elevation

Earthquake Activity

City Distance Mag. Time & Date
Minimum magnitude displayed is 2.5.

Coastal Water Temperatures

Place Temperature

Stations

Nearby Weather Stations

Station Location Temp. Windchill Dew Point Humidity Wind Precip. Elev Updated Type
                   

Watches & Warnings

There are currently no watches in effect.